Time;durP1;ratioP1;P1;durP2;ratioP2;P2;SDS_P1;SDS_P2;PMS_P1;PMS_P2;Temp;Humidity;BMP_temperature;BMP_pressure;BME280_temperature;BME280_humidity;BME280_pressure;Samples;Min_cycle;Max_cycle;Signal;HPM_P1;HPM_P2
2023/08/16 00:03:43;;;;;;;9.75;4.85;;;;;;;;;;10598070;27;20534;-90
2023/08/16 00:08:47;;;;;;;9.02;5.05;;;;;;;;;;10573604;27;20104;-89
2023/08/16 00:14:01;;;;;;;13.15;5.60;;;;;;;;;;10575783;27;20036;-89
2023/08/16 00:19:09;;;;;;;14.32;5.57;;;;;;;;;;10590166;27;20039;-90
2023/08/16 00:24:21;;;;;;;11.05;5.18;;;;;;;;;;10586511;27;20363;-89
2023/08/16 00:29:28;;;;;;;10.93;5.28;;;;;;;;;;10612407;27;20051;-90
2023/08/16 00:34:53;;;;;;;9.43;4.80;;;;;;;;;;10599373;27;20120;-90
2023/08/16 00:39:58;;;;;;;11.35;5.15;;;;;;;;;;10592781;27;20515;-90
2023/08/16 00:45:03;;;;;;;8.73;4.80;;;;;;;;;;10605386;27;20064;-90
2023/08/16 00:50:16;;;;;;;9.00;5.38;;;;;;;;;;10608698;27;20038;-91
2023/08/16 00:55:24;;;;;;;9.40;5.40;;;;;;;;;;10589054;27;20059;-92
2023/08/16 01:00:34;;;;;;;11.85;5.82;;;;;;;;;;10585054;27;20128;-93
2023/08/16 01:05:51;;;;;;;8.43;5.22;;;;;;;;;;10607313;27;20045;-92
2023/08/16 01:11:00;;;;;;;9.40;5.50;;;;;;;;;;10609509;27;20055;-91
2023/08/16 01:16:09;;;;;;;8.93;4.95;;;;;;;;;;10596163;27;20039;-91
2023/08/16 01:21:20;;;;;;;10.70;5.00;;;;;;;;;;10567001;27;20035;-91
2023/08/16 01:26:37;;;;;;;8.98;4.50;;;;;;;;;;10595577;27;20075;-92
2023/08/16 01:31:44;;;;;;;10.60;4.70;;;;;;;;;;10598547;27;20039;-93
2023/08/16 01:36:48;;;;;;;11.80;4.70;;;;;;;;;;10572667;27;20441;-93
2023/08/16 01:41:59;;;;;;;10.43;5.05;;;;;;;;;;10601796;27;20067;-93
2023/08/16 01:47:06;;;;;;;11.50;5.03;;;;;;;;;;10576319;27;20039;-93
2023/08/16 01:52:11;;;;;;;8.73;4.90;;;;;;;;;;10585859;27;20042;-93
2023/08/16 01:57:21;;;;;;;7.50;4.60;;;;;;;;;;10607852;27;20112;-93
2023/08/16 02:02:27;;;;;;;7.93;4.07;;;;;;;;;;10591880;27;20039;-93
2023/08/16 02:07:34;;;;;;;6.22;3.97;;;;;;;;;;10587376;27;20474;-93
2023/08/16 02:12:45;;;;;;;8.73;4.25;;;;;;;;;;10616574;27;20055;-93
2023/08/16 02:17:51;;;;;;;7.32;4.18;;;;;;;;;;10605079;27;20146;-93
2023/08/16 02:23:00;;;;;;;9.07;4.43;;;;;;;;;;10614503;27;20047;-94
2023/08/16 02:28:10;;;;;;;8.63;4.40;;;;;;;;;;10611421;27;20049;-93
2023/08/16 02:33:17;;;;;;;6.15;3.83;;;;;;;;;;10573815;27;20416;-89
2023/08/16 02:38:28;;;;;;;8.70;4.32;;;;;;;;;;10597893;27;20196;-89
2023/08/16 02:43:46;;;;;;;8.30;4.45;;;;;;;;;;10603352;27;20434;-91
2023/08/16 02:48:53;;;;;;;8.40;4.25;;;;;;;;;;10584948;27;20386;-90
2023/08/16 02:53:57;;;;;;;5.38;2.95;;;;;;;;;;10578724;27;20051;-91
2023/08/16 02:59:04;;;;;;;7.15;4.07;;;;;;;;;;10603911;27;20035;-92
2023/08/16 03:04:15;;;;;;;6.57;3.92;;;;;;;;;;10606971;27;20046;-91
2023/08/16 03:09:19;;;;;;;8.35;4.20;;;;;;;;;;10597727;27;20071;-92
2023/08/16 03:14:27;;;;;;;10.15;3.70;;;;;;;;;;10610339;27;20062;-89
2023/08/16 03:19:37;;;;;;;9.30;4.25;;;;;;;;;;10598416;27;20066;-89
2023/08/16 03:24:42;;;;;;;7.28;4.10;;;;;;;;;;10601755;27;20078;-87
2023/08/16 03:29:55;;;;;;;5.95;3.63;;;;;;;;;;10601945;27;20508;-89
2023/08/16 03:34:59;;;;;;;6.22;3.85;;;;;;;;;;10605809;27;20575;-88
2023/08/16 03:40:14;;;;;;;7.75;4.18;;;;;;;;;;10601214;27;20047;-88
2023/08/16 03:45:24;;;;;;;7.50;4.22;;;;;;;;;;10583020;27;20039;-90
2023/08/16 03:50:36;;;;;;;6.03;3.75;;;;;;;;;;10583336;27;20046;-89
2023/08/16 03:55:47;;;;;;;6.93;4.15;;;;;;;;;;10585283;27;20039;-90
2023/08/16 04:00:55;;;;;;;8.57;4.50;;;;;;;;;;10602246;27;20497;-90
2023/08/16 04:06:00;;;;;;;6.80;4.20;;;;;;;;;;10596168;27;20067;-90
2023/08/16 04:11:18;;;;;;;8.30;4.65;;;;;;;;;;10593638;27;20074;-91
2023/08/16 04:16:31;;;;;;;7.18;4.10;;;;;;;;;;10602085;27;20035;-93
2023/08/16 04:21:38;;;;;;;7.10;4.50;;;;;;;;;;10601149;27;20466;-92
2023/08/16 04:26:43;;;;;;;7.78;4.88;;;;;;;;;;10594399;27;20577;-90
2023/08/16 04:31:58;;;;;;;9.40;4.50;;;;;;;;;;10607624;27;20130;-90
2023/08/16 04:37:05;;;;;;;8.50;4.65;;;;;;;;;;10581542;27;20035;-91
2023/08/16 04:42:18;;;;;;;9.27;4.32;;;;;;;;;;10596361;27;20069;-90
2023/08/16 04:52:57;;;;;;;8.27;4.50;;;;;;;;;;10597486;27;20035;-89
2023/08/16 04:58:08;;;;;;;;;;;;;;;;;;10600343;27;20043;-91
2023/08/16 05:08:42;;;;;;;9.07;4.40;;;;;;;;;;10519082;27;20399;-89
2023/08/16 05:13:45;;;;;;;8.75;4.40;;;;;;;;;;10488099;28;20277;-89
2023/08/16 05:18:48;;;;;;;7.03;4.28;;;;;;;;;;10471845;28;20143;-90
2023/08/16 05:23:52;;;;;;;7.97;4.37;;;;;;;;;;10475387;28;20178;-88
2023/08/16 05:28:55;;;;;;;9.48;4.40;;;;;;;;;;10486558;28;20493;-89
2023/08/16 05:33:58;;;;;;;7.07;4.18;;;;;;;;;;10477285;28;20707;-89
2023/08/16 05:39:03;;;;;;;9.23;4.57;;;;;;;;;;10475537;28;20052;-90
2023/08/16 05:44:06;;;;;;;9.43;4.53;;;;;;;;;;10481181;28;20058;-90
2023/08/16 05:49:09;;;;;;;8.93;4.80;;;;;;;;;;10460694;28;20684;-88
2023/08/16 05:54:13;;;;;;;7.28;3.78;;;;;;;;;;10473471;28;20064;-93
2023/08/16 05:59:16;;;;;;;7.32;4.22;;;;;;;;;;10475315;28;20136;-92
2023/08/16 06:04:18;;;;;;;6.83;3.93;;;;;;;;;;10469696;28;20064;-92
2023/08/16 06:09:22;;;;;;;9.82;3.88;;;;;;;;;;10470964;28;20044;-91
2023/08/16 06:14:25;;;;;;;6.22;2.28;;;;;;;;;;10478348;28;20115;-93
2023/08/16 06:19:28;;;;;;;7.13;4.53;;;;;;;;;;10473547;28;20053;-92
2023/08/16 06:24:34;;;;;;;6.97;3.83;;;;;;;;;;10486809;28;20287;-93
2023/08/16 06:29:36;;;;;;;7.50;3.83;;;;;;;;;;10494290;28;20025;-89
2023/08/16 06:34:39;;;;;;;8.13;3.47;;;;;;;;;;10499489;28;20044;-84
2023/08/16 06:39:43;;;;;;;11.90;4.18;;;;;;;;;;10452470;28;20463;-81
2023/08/16 06:44:46;;;;;;;10.73;4.90;;;;;;;;;;10449030;28;20110;-84
2023/08/16 06:49:48;;;;;;;6.72;3.63;;;;;;;;;;10449590;28;20045;-84
2023/08/16 06:54:53;;;;;;;7.13;3.90;;;;;;;;;;10439074;28;20043;-83
2023/08/16 06:59:56;;;;;;;5.63;3.60;;;;;;;;;;10438978;28;20055;-84
2023/08/16 07:04:58;;;;;;;8.02;3.80;;;;;;;;;;10436832;28;20127;-82
2023/08/16 07:10:02;;;;;;;5.25;3.17;;;;;;;;;;10436273;28;20124;-82
2023/08/16 07:15:06;;;;;;;7.53;3.53;;;;;;;;;;10447782;28;20073;-82
2023/08/16 07:20:08;;;;;;;7.07;3.17;;;;;;;;;;10439221;28;20238;-80
2023/08/16 07:25:13;;;;;;;5.68;3.35;;;;;;;;;;10442157;28;20083;-81
2023/08/16 07:30:15;;;;;;;6.95;3.70;;;;;;;;;;10440229;28;20520;-80
2023/08/16 07:35:18;;;;;;;4.95;2.67;;;;;;;;;;10434219;28;20049;-80
2023/08/16 07:40:23;;;;;;;4.88;3.08;;;;;;;;;;10439860;28;20124;-81
2023/08/16 07:45:25;;;;;;;5.50;3.08;;;;;;;;;;10439473;28;20113;-82
2023/08/16 07:50:28;;;;;;;4.88;2.63;;;;;;;;;;10437777;28;20045;-81
2023/08/16 07:55:33;;;;;;;3.17;2.70;;;;;;;;;;10447136;28;20064;-83
2023/08/16 08:00:36;;;;;;;3.67;2.78;;;;;;;;;;10433238;28;20051;-84
2023/08/16 08:05:39;;;;;;;7.18;2.80;;;;;;;;;;10441244;28;20133;-85
2023/08/16 08:10:44;;;;;;;6.57;2.80;;;;;;;;;;10450175;28;20136;-88
2023/08/16 08:15:47;;;;;;;5.50;2.60;;;;;;;;;;10443389;28;20041;-88
2023/08/16 08:20:50;;;;;;;3.00;2.50;;;;;;;;;;10454496;28;20052;-87
2023/08/16 08:25:54;;;;;;;3.00;2.63;;;;;;;;;;10450028;28;20390;-88
2023/08/16 08:30:57;;;;;;;3.28;2.33;;;;;;;;;;10441470;28;20168;-82
2023/08/16 08:36:00;;;;;;;3.70;2.65;;;;;;;;;;10435845;28;20132;-80
2023/08/16 08:41:06;;;;;;;3.20;2.80;;;;;;;;;;10431097;28;20129;-82
2023/08/16 08:46:09;;;;;;;2.78;2.50;;;;;;;;;;10435077;28;20381;-83
2023/08/16 08:51:12;;;;;;;2.63;2.42;;;;;;;;;;10434266;28;20127;-83
2023/08/16 08:56:17;;;;;;;3.03;2.70;;;;;;;;;;10427332;28;20041;-83
2023/08/16 09:01:21;;;;;;;3.38;2.53;;;;;;;;;;10439880;28;20128;-81
2023/08/16 09:06:23;;;;;;;3.30;2.58;;;;;;;;;;10432947;28;20128;-80
2023/08/16 09:11:29;;;;;;;4.53;2.67;;;;;;;;;;10435322;28;20123;-82
2023/08/16 09:16:32;;;;;;;4.78;2.80;;;;;;;;;;10452245;28;20044;-81
2023/08/16 09:21:35;;;;;;;4.53;2.90;;;;;;;;;;10446445;28;20079;-82
2023/08/16 09:26:41;;;;;;;3.95;2.75;;;;;;;;;;10436591;28;20126;-83
2023/08/16 09:31:45;;;;;;;6.40;2.75;;;;;;;;;;10436595;28;20118;-86
2023/08/16 09:36:49;;;;;;;3.42;2.40;;;;;;;;;;10446869;28;20037;-87
2023/08/16 09:41:53;;;;;;;3.70;2.90;;;;;;;;;;10439864;28;20080;-85
2023/08/16 09:46:56;;;;;;;4.85;3.03;;;;;;;;;;10443324;28;20049;-84
2023/08/16 09:52:03;;;;;;;4.32;2.72;;;;;;;;;;10443275;28;20245;-75
2023/08/16 09:57:10;;;;;;;2.90;2.70;;;;;;;;;;10447076;28;20397;-76
2023/08/16 10:02:16;;;;;;;4.60;3.22;;;;;;;;;;10443579;28;20474;-75
2023/08/16 10:07:20;;;;;;;2.60;2.40;;;;;;;;;;10442222;28;20487;-76
2023/08/16 10:12:24;;;;;;;3.25;2.70;;;;;;;;;;10449763;28;20163;-74
2023/08/16 10:17:28;;;;;;;4.78;2.63;;;;;;;;;;10456826;28;20037;-75
2023/08/16 10:22:40;;;;;;;6.05;3.08;;;;;;;;;;10449600;28;20038;-75
2023/08/16 10:27:45;;;;;;;2.90;2.70;;;;;;;;;;10451860;28;20037;-75
2023/08/16 10:32:50;;;;;;;2.70;2.38;;;;;;;;;;10452131;28;20048;-76
2023/08/16 10:37:56;;;;;;;2.88;2.67;;;;;;;;;;10456642;28;20065;-76
2023/08/16 10:43:04;;;;;;;5.43;2.92;;;;;;;;;;10448307;28;20538;-76
2023/08/16 10:48:10;;;;;;;3.10;2.75;;;;;;;;;;10448443;28;20040;-77
2023/08/16 10:53:18;;;;;;;4.95;3.13;;;;;;;;;;10447978;28;20052;-75
2023/08/16 10:58:23;;;;;;;3.83;2.80;;;;;;;;;;10442760;28;20124;-76
2023/08/16 11:03:33;;;;;;;2.75;2.55;;;;;;;;;;10437440;28;20511;-76
2023/08/16 11:08:39;;;;;;;3.55;2.83;;;;;;;;;;10441140;28;20047;-77
2023/08/16 11:13:43;;;;;;;3.08;2.80;;;;;;;;;;10443731;28;20433;-80
2023/08/16 11:18:46;;;;;;;3.10;2.42;;;;;;;;;;10440562;28;20099;-77
2023/08/16 11:23:53;;;;;;;2.65;2.45;;;;;;;;;;10439511;28;20120;-76
2023/08/16 11:28:58;;;;;;;2.92;2.70;;;;;;;;;;10445970;28;20044;-76
2023/08/16 11:34:01;;;;;;;3.22;2.88;;;;;;;;;;10440591;28;20036;-76
2023/08/16 11:39:04;;;;;;;2.60;2.40;;;;;;;;;;10435404;28;20033;-76
2023/08/16 11:44:08;;;;;;;3.33;2.85;;;;;;;;;;10441689;28;20049;-77
2023/08/16 11:49:12;;;;;;;3.13;2.20;;;;;;;;;;10444889;28;20040;-76
2023/08/16 11:54:22;;;;;;;4.28;2.50;;;;;;;;;;10442412;28;20468;-76
2023/08/16 11:59:28;;;;;;;3.75;2.72;;;;;;;;;;10446661;28;20094;-75
2023/08/16 12:04:31;;;;;;;5.03;2.60;;;;;;;;;;10437167;28;20418;-75
2023/08/16 12:09:39;;;;;;;3.00;2.70;;;;;;;;;;10428711;28;20037;-75
2023/08/16 12:14:48;;;;;;;3.80;2.80;;;;;;;;;;10435530;28;20040;-76
2023/08/16 12:19:51;;;;;;;3.60;2.90;;;;;;;;;;10427496;28;20438;-76
2023/08/16 12:24:54;;;;;;;3.05;2.70;;;;;;;;;;10426023;28;20063;-76
2023/08/16 12:29:58;;;;;;;3.10;2.80;;;;;;;;;;10431893;28;20043;-76
2023/08/16 12:35:01;;;;;;;3.03;2.72;;;;;;;;;;10432796;28;20469;-76
2023/08/16 12:40:09;;;;;;;3.30;2.90;;;;;;;;;;10466962;28;20060;-77
2023/08/16 12:45:13;;;;;;;3.10;2.72;;;;;;;;;;10436069;28;20036;-77
2023/08/16 12:50:16;;;;;;;5.50;3.10;;;;;;;;;;10434981;28;20049;-76
2023/08/16 12:55:19;;;;;;;6.22;3.10;;;;;;;;;;10436873;28;20049;-76
2023/08/16 13:00:23;;;;;;;3.65;2.90;;;;;;;;;;10432622;28;20043;-76
2023/08/16 13:05:27;;;;;;;3.42;3.10;;;;;;;;;;10433711;28;21269;-77
2023/08/16 13:10:33;;;;;;;5.63;3.22;;;;;;;;;;10434983;28;20114;-77
2023/08/16 13:15:57;;;;;;;5.32;3.03;;;;;;;;;;10432326;28;20045;-76
2023/08/16 13:21:03;;;;;;;3.42;2.92;;;;;;;;;;10436378;28;20072;-77
2023/08/16 13:26:21;;;;;;;4.10;3.25;;;;;;;;;;10431663;28;20581;-77
2023/08/16 13:31:41;;;;;;;4.57;3.00;;;;;;;;;;10440554;28;20051;-76
2023/08/16 13:36:47;;;;;;;4.30;2.80;;;;;;;;;;10440039;28;20040;-76
2023/08/16 13:41:59;;;;;;;5.47;2.97;;;;;;;;;;10440160;28;20041;-76
2023/08/16 13:47:09;;;;;;;4.65;2.83;;;;;;;;;;10444412;28;20132;-76
2023/08/16 13:52:12;;;;;;;5.35;2.88;;;;;;;;;;10441681;28;20045;-75
2023/08/16 13:57:15;;;;;;;3.28;2.70;;;;;;;;;;10442836;28;20029;-77
2023/08/16 14:02:19;;;;;;;3.17;2.67;;;;;;;;;;10436888;28;20689;-76
2023/08/16 14:07:22;;;;;;;3.95;2.67;;;;;;;;;;10431994;28;20180;-77
2023/08/16 14:12:25;;;;;;;6.60;2.83;;;;;;;;;;10437361;28;20051;-77
2023/08/16 14:17:30;;;;;;;4.15;2.65;;;;;;;;;;10437542;28;20033;-76
2023/08/16 14:22:32;;;;;;;3.97;2.80;;;;;;;;;;10434504;28;20045;-75
2023/08/16 14:27:35;;;;;;;3.28;2.75;;;;;;;;;;10437410;28;20043;-76
2023/08/16 14:32:39;;;;;;;3.90;2.80;;;;;;;;;;10441748;28;20131;-76
2023/08/16 14:37:44;;;;;;;4.70;3.25;;;;;;;;;;10431078;28;20143;-78
2023/08/16 14:42:47;;;;;;;6.05;3.15;;;;;;;;;;10441223;28;20157;-75
2023/08/16 14:47:51;;;;;;;4.13;2.90;;;;;;;;;;10443778;28;20673;-76
2023/08/16 14:52:54;;;;;;;5.43;3.00;;;;;;;;;;10441437;28;20073;-76
2023/08/16 14:58:04;;;;;;;4.97;3.20;;;;;;;;;;10440945;28;20056;-76
2023/08/16 15:03:08;;;;;;;4.18;2.72;;;;;;;;;;10435450;28;20640;-76
2023/08/16 15:08:14;;;;;;;3.47;2.97;;;;;;;;;;10444768;28;20041;-77
2023/08/16 15:13:19;;;;;;;4.28;2.78;;;;;;;;;;10445494;28;20121;-76
2023/08/16 15:18:23;;;;;;;7.53;3.80;;;;;;;;;;10446013;28;20045;-76
2023/08/16 15:23:26;;;;;;;4.00;2.97;;;;;;;;;;10448076;28;20053;-75
2023/08/16 15:28:28;;;;;;;3.65;2.70;;;;;;;;;;10450567;28;20120;-74
2023/08/16 15:33:32;;;;;;;10.00;4.63;;;;;;;;;;10447453;28;20550;-73
2023/08/16 15:38:39;;;;;;;10.80;3.78;;;;;;;;;;10455177;28;20463;-75
2023/08/16 15:43:43;;;;;;;5.32;3.00;;;;;;;;;;10448333;28;20123;-74
2023/08/16 15:48:47;;;;;;;5.03;2.80;;;;;;;;;;10441390;28;20033;-75
2023/08/16 15:53:49;;;;;;;5.40;2.92;;;;;;;;;;10438516;28;20554;-75
2023/08/16 15:58:52;;;;;;;5.65;2.80;;;;;;;;;;10439476;28;20420;-76
2023/08/16 16:03:56;;;;;;;4.03;3.00;;;;;;;;;;10437252;28;20517;-75
2023/08/16 16:08:59;;;;;;;7.43;3.30;;;;;;;;;;10438437;28;20037;-75
2023/08/16 16:14:03;;;;;;;6.07;3.28;;;;;;;;;;10434918;28;20494;-75
2023/08/16 16:19:07;;;;;;;3.95;2.95;;;;;;;;;;10438950;28;20056;-75
2023/08/16 16:24:09;;;;;;;5.45;2.92;;;;;;;;;;10446861;28;20045;-75
2023/08/16 16:29:12;;;;;;;4.25;2.53;;;;;;;;;;10438743;28;20048;-74
2023/08/16 16:34:16;;;;;;;3.97;2.47;;;;;;;;;;10439657;28;20043;-75
2023/08/16 16:39:18;;;;;;;4.05;2.70;;;;;;;;;;10436349;28;20069;-75
2023/08/16 16:44:22;;;;;;;5.47;2.60;;;;;;;;;;10436146;28;20041;-74
2023/08/16 16:49:26;;;;;;;5.25;2.80;;;;;;;;;;10439886;28;20495;-75
2023/08/16 16:54:29;;;;;;;4.18;2.60;;;;;;;;;;10434132;28;20056;-75
2023/08/16 16:59:32;;;;;;;8.13;2.78;;;;;;;;;;10442823;28;20144;-75
2023/08/16 17:04:37;;;;;;;4.32;2.75;;;;;;;;;;10441458;28;20124;-74
2023/08/16 17:09:40;;;;;;;4.78;2.85;;;;;;;;;;10436611;28;20137;-75
2023/08/16 17:14:43;;;;;;;4.55;2.97;;;;;;;;;;10442829;28;20049;-75
2023/08/16 17:19:47;;;;;;;5.15;2.83;;;;;;;;;;10438021;28;20128;-75
2023/08/16 17:24:50;;;;;;;7.03;3.70;;;;;;;;;;10443738;28;20065;-74
2023/08/16 17:29:52;;;;;;;7.22;3.40;;;;;;;;;;10443624;28;20041;-74
2023/08/16 17:34:56;;;;;;;4.47;2.83;;;;;;;;;;10440491;28;20060;-75
2023/08/16 17:39:59;;;;;;;4.70;2.70;;;;;;;;;;10442366;28;20428;-74
2023/08/16 17:45:01;;;;;;;7.15;2.80;;;;;;;;;;10437299;28;20037;-76
2023/08/16 17:50:06;;;;;;;3.33;2.42;;;;;;;;;;10437021;28;20127;-76
2023/08/16 17:55:10;;;;;;;4.72;2.75;;;;;;;;;;10435089;28;20060;-76
2023/08/16 18:00:13;;;;;;;5.28;2.30;;;;;;;;;;10436855;28;20405;-75
2023/08/16 18:05:17;;;;;;;4.47;2.75;;;;;;;;;;10443547;28;20574;-75
2023/08/16 18:10:20;;;;;;;4.45;2.58;;;;;;;;;;10444637;28;20116;-75
2023/08/16 18:15:22;;;;;;;;;;;;;;;;;;10453439;28;20037;-82
2023/08/16 18:20:25;;;;;;;;;;;;;;;;;;10456202;28;19924;-78
2023/08/16 18:25:31;;;;;;;4.63;3.03;;;;;;;;;;10449345;28;19929;-84
2023/08/16 18:30:33;;;;;;;5.72;3.40;;;;;;;;;;10442848;28;20116;-79
2023/08/16 18:35:36;;;;;;;;;;;;;;;;;;10439977;28;20045;-78
2023/08/16 18:40:43;;;;;;;5.07;3.00;;;;;;;;;;10445784;28;20011;-85
2023/08/16 18:45:46;;;;;;;4.88;3.05;;;;;;;;;;10445554;28;20546;-80
2023/08/16 18:50:49;;;;;;;6.32;3.13;;;;;;;;;;10440482;28;20063;-83
2023/08/16 18:55:51;;;;;;;;;;;;;;;;;;10441661;28;20072;-79
2023/08/16 19:00:56;;;;;;;5.25;3.55;;;;;;;;;;10450148;28;20301;-80
2023/08/16 19:05:59;;;;;;;7.50;3.45;;;;;;;;;;10455508;28;20456;-80
2023/08/16 19:11:02;;;;;;;5.18;3.28;;;;;;;;;;10454352;28;20124;-81
2023/08/16 19:16:06;;;;;;;5.85;3.50;;;;;;;;;;10451566;28;20564;-81
2023/08/16 19:21:09;;;;;;;6.82;3.63;;;;;;;;;;10444582;28;20037;-81
2023/08/16 19:26:13;;;;;;;11.00;4.25;;;;;;;;;;10434644;28;20136;-80
2023/08/16 19:31:15;;;;;;;;;;;;;;;;;;10438966;28;20067;-81
2023/08/16 19:36:20;;;;;;;8.80;5.47;;;;;;;;;;10453228;28;20313;-82
2023/08/16 19:41:22;;;;;;;7.10;4.13;;;;;;;;;;10435916;28;20483;-82
2023/08/16 19:46:25;;;;;;;7.55;4.38;;;;;;;;;;10441170;28;20076;-82
2023/08/16 19:51:29;;;;;;;10.00;5.43;;;;;;;;;;10440271;28;20508;-79
2023/08/16 19:56:33;;;;;;;8.10;4.97;;;;;;;;;;10450638;28;20114;-82
2023/08/16 20:01:36;;;;;;;10.02;4.68;;;;;;;;;;10452647;28;20045;-86
2023/08/16 20:06:42;;;;;;;7.97;4.35;;;;;;;;;;10464871;28;20045;-87
2023/08/16 20:11:45;;;;;;;8.73;4.68;;;;;;;;;;10455309;28;20519;-86
2023/08/16 20:16:48;;;;;;;6.88;4.32;;;;;;;;;;10445860;28;20089;-87
2023/08/16 20:21:52;;;;;;;;;;;;;;;;;;10447392;28;20418;-86
2023/08/16 20:26:57;;;;;;;6.28;4.55;;;;;;;;;;10446037;28;19924;-85
2023/08/16 20:32:05;;;;;;;13.30;5.32;;;;;;;;;;10438236;28;20487;-87
2023/08/16 20:37:12;;;;;;;7.30;4.88;;;;;;;;;;10435568;28;20090;-80
2023/08/16 20:42:19;;;;;;;9.00;4.60;;;;;;;;;;10478437;28;20029;-81
2023/08/16 20:47:36;;;;;;;11.07;5.53;;;;;;;;;;10465786;28;20041;-81
2023/08/16 20:52:42;;;;;;;11.05;5.47;;;;;;;;;;10470071;28;20036;-82
2023/08/16 20:58:04;;;;;;;7.88;5.22;;;;;;;;;;10465365;28;20519;-82
2023/08/16 21:03:16;;;;;;;8.70;4.75;;;;;;;;;;10456023;28;20036;-83
2023/08/16 21:08:23;;;;;;;8.75;5.47;;;;;;;;;;10473632;28;20056;-84
2023/08/16 21:19:13;;;;;;;10.13;5.65;;;;;;;;;;10516044;28;20040;-84
2023/08/16 21:24:20;;;;;;;8.35;5.38;;;;;;;;;;10499400;28;20285;-83
2023/08/16 21:29:29;;;;;;;13.48;5.22;;;;;;;;;;10520076;28;20058;-84
2023/08/16 21:34:46;;;;;;;8.50;4.43;;;;;;;;;;10520817;28;20621;-83
2023/08/16 21:40:16;;;;;;;9.05;4.80;;;;;;;;;;10528738;28;20040;-82
2023/08/16 21:45:28;;;;;;;8.70;5.30;;;;;;;;;;10502460;28;20496;-84
2023/08/16 21:50:53;;;;;;;9.35;5.13;;;;;;;;;;10534815;28;20462;-83
2023/08/16 21:56:12;;;;;;;10.13;5.45;;;;;;;;;;10518940;28;20560;-84
2023/08/16 22:01:17;;;;;;;9.93;5.65;;;;;;;;;;10532908;28;20063;-85
2023/08/16 22:06:34;;;;;;;8.38;5.10;;;;;;;;;;10526812;28;20037;-83
2023/08/16 22:11:41;;;;;;;11.15;5.03;;;;;;;;;;10528199;28;20067;-83
2023/08/16 22:16:51;;;;;;;7.90;5.20;;;;;;;;;;10512879;28;20075;-81
2023/08/16 22:22:04;;;;;;;8.95;4.72;;;;;;;;;;10510621;28;20042;-83
2023/08/16 22:27:25;;;;;;;8.27;5.22;;;;;;;;;;10529821;28;20050;-83
2023/08/16 22:32:52;;;;;;;8.15;4.68;;;;;;;;;;10507035;28;20478;-82
2023/08/16 22:38:04;;;;;;;8.65;5.10;;;;;;;;;;10533139;28;20156;-83
2023/08/16 22:43:22;;;;;;;8.45;5.03;;;;;;;;;;10533550;28;20119;-83
2023/08/16 22:48:32;;;;;;;9.93;5.30;;;;;;;;;;10532309;28;20135;-83
2023/08/16 22:53:38;;;;;;;9.95;5.00;;;;;;;;;;10540142;28;20051;-83
2023/08/16 23:09:49;;;;;;;10.02;5.93;;;;;;;;;;10526320;28;20047;-83
2023/08/16 23:15:01;;;;;;;9.63;5.15;;;;;;;;;;10519986;28;20032;-82
2023/08/16 23:20:11;;;;;;;10.80;5.30;;;;;;;;;;10517988;28;20045;-81
2023/08/16 23:25:22;;;;;;;9.98;5.70;;;;;;;;;;10535028;28;20493;-83
2023/08/16 23:30:45;;;;;;;10.50;6.40;;;;;;;;;;10545357;28;20474;-82
2023/08/16 23:41:13;;;;;;;10.03;5.60;;;;;;;;;;10540048;28;20040;-83
2023/08/16 23:46:27;;;;;;;11.63;6.18;;;;;;;;;;10569442;27;20493;-84
2023/08/16 23:51:33;;;;;;;9.95;5.82;;;;;;;;;;10518687;28;20052;-84
2023/08/16 23:56:40;;;;;;;11.85;5.88;;;;;;;;;;10532019;28;20118;-81
